createdAt,value
2023-01-20T00:02:05.166Z,99261.31
2023-01-20T00:04:33.949Z,99270.75
2023-01-20T00:07:04.771Z,99271.59
2023-01-20T00:09:37.040Z,99274.09
2023-01-20T00:12:10.417Z,99280.94
2023-01-20T00:14:39.177Z,99286.09
2023-01-20T00:17:07.757Z,99285.25
2023-01-20T00:19:36.477Z,99281.81
2023-01-20T00:22:07.072Z,99287.84
2023-01-20T00:24:38.370Z,99302.47
2023-01-20T00:27:08.481Z,99298.16
2023-01-20T00:29:38.364Z,99300.75
2023-01-20T00:32:09.647Z,99302.50
2023-01-20T00:34:40.544Z,99307.66
2023-01-20T00:37:09.170Z,99303.38
2023-01-20T00:39:37.567Z,99313.75
2023-01-20T00:42:07.739Z,99319.88
2023-01-20T00:44:39.467Z,99329.38
2023-01-20T00:47:08.421Z,99332.78
2023-01-20T00:49:37.096Z,99341.38
2023-01-20T00:52:09.020Z,99343.09
2023-01-20T00:54:37.527Z,99338.81
2023-01-20T00:57:10.052Z,99340.50
2023-01-20T00:59:38.900Z,99336.19
2023-01-20T01:02:07.348Z,99330.16
2023-01-20T01:04:36.280Z,99324.09
2023-01-20T01:07:07.808Z,99329.25
2023-01-20T01:09:36.337Z,99337.91
2023-01-20T01:12:05.205Z,99337.88
2023-01-20T01:14:35.857Z,99343.91
2023-01-20T01:17:04.495Z,99340.44
2023-01-20T01:19:36.374Z,99330.13
2023-01-20T01:22:04.986Z,99322.41
2023-01-20T01:24:33.612Z,99319.00
2023-01-20T01:27:02.111Z,99322.50
2023-01-20T01:29:35.526Z,99327.69
2023-01-20T01:32:07.225Z,99331.09
2023-01-20T01:34:36.615Z,99337.13
2023-01-20T01:37:05.005Z,99338.81
2023-01-20T01:39:33.491Z,99336.25
2023-01-20T01:42:02.370Z,99333.63
2023-01-20T01:44:30.897Z,99320.75
2023-01-20T01:47:01.076Z,99313.84
2023-01-20T01:49:34.196Z,99310.41
2023-01-20T01:52:05.761Z,99320.75
2023-01-20T01:54:38.227Z,99338.00
2023-01-20T01:57:08.833Z,99347.38
2023-01-20T01:59:39.249Z,99340.59
2023-01-20T02:02:09.251Z,99339.72
2023-01-20T02:04:41.354Z,99348.38
2023-01-20T02:07:15.863Z,99352.69
2023-01-20T02:09:46.795Z,99346.56
2023-01-20T02:12:19.292Z,99356.00
2023-01-20T02:14:53.877Z,99351.66
2023-01-20T02:17:30.199Z,99340.44
2023-01-20T02:20:21.420Z,99347.41
2023-01-20T02:22:56.789Z,99350.06
2023-01-20T02:25:46.840Z,99347.50
2023-01-20T02:28:54.265Z,99332.88
2023-01-20T02:32:12.486Z,99336.31
2023-01-20T02:34:51.079Z,99343.19
2023-01-20T02:37:24.835Z,99344.91
2023-01-20T02:40:06.146Z,99345.75
2023-01-20T02:42:39.704Z,99351.75
2023-01-20T02:45:17.930Z,99365.50
2023-01-20T02:47:54.441Z,99376.59
2023-01-20T02:50:33.201Z,99384.34
2023-01-20T02:53:06.907Z,99397.22
2023-01-20T02:55:40.519Z,99397.25
2023-01-20T02:58:14.086Z,99400.66
2023-01-20T03:00:50.481Z,99397.25
2023-01-20T03:03:25.351Z,99386.06
2023-01-20T03:05:59.037Z,99393.88
2023-01-20T03:08:32.087Z,99397.31
2023-01-20T03:11:05.600Z,99404.22
2023-01-20T03:13:39.250Z,99399.03
2023-01-20T03:16:15.739Z,99415.38
2023-01-20T03:18:44.408Z,99410.16
2023-01-20T03:21:15.212Z,99415.31
2023-01-20T03:23:47.793Z,99413.63
2023-01-20T03:26:19.522Z,99417.03
2023-01-20T03:28:49.833Z,99426.50
2023-01-20T03:31:22.698Z,99434.22
2023-01-20T03:33:54.987Z,99429.06
2023-01-20T03:36:28.237Z,99422.19
2023-01-20T03:38:58.201Z,99435.91
2023-01-20T03:41:35.532Z,99439.34
2023-01-20T03:44:12.938Z,99433.34
2023-01-20T03:46:47.285Z,99431.59
2023-01-20T03:49:25.250Z,99431.63
2023-01-20T03:52:03.902Z,99436.00
2023-01-20T03:54:39.950Z,99428.25
2023-01-20T03:57:13.443Z,99432.56
2023-01-20T03:59:45.107Z,99442.06
2023-01-20T04:02:14.017Z,99454.97
2023-01-20T04:04:47.801Z,99464.41
2023-01-20T04:07:20.090Z,99464.38
2023-01-20T04:09:53.220Z,99460.91
2023-01-20T04:12:21.969Z,99461.81
2023-01-20T04:14:53.573Z,99463.56
2023-01-20T04:17:31.234Z,99451.53
2023-01-20T04:20:09.467Z,99463.56
2023-01-20T04:22:50.207Z,99472.16
2023-01-20T04:25:23.848Z,99468.72
2023-01-20T04:27:52.524Z,99479.91
2023-01-20T04:30:21.194Z,99478.16
2023-01-20T04:32:50.317Z,99482.41
2023-01-20T04:35:21.237Z,99476.38
2023-01-20T04:37:54.149Z,99478.09
2023-01-20T04:40:25.741Z,99484.97
2023-01-20T04:42:56.440Z,99485.88
2023-01-20T04:45:29.498Z,99498.78
2023-01-20T04:47:58.035Z,99503.06
2023-01-20T04:50:26.377Z,99511.66
2023-01-20T04:52:59.900Z,99509.91
2023-01-20T04:55:29.174Z,99518.53
2023-01-20T04:57:57.595Z,99519.44
2023-01-20T05:00:26.185Z,99537.50
2023-01-20T05:03:00.433Z,99547.81
2023-01-20T05:05:29.095Z,99547.88
2023-01-20T05:07:59.824Z,99567.66
2023-01-20T05:10:28.210Z,99566.78
2023-01-20T05:12:56.635Z,99563.31
2023-01-20T05:15:25.407Z,99570.19
2023-01-20T05:17:53.766Z,99579.69
2023-01-20T05:20:22.303Z,99595.19
2023-01-20T05:22:51.110Z,99596.03
2023-01-20T05:25:20.932Z,99596.88
2023-01-20T05:27:49.657Z,99603.75
2023-01-20T05:30:18.609Z,99605.44
2023-01-20T05:32:47.176Z,99604.63
2023-01-20T05:35:21.864Z,99614.91
2023-01-20T05:37:53.497Z,99614.09
2023-01-20T05:40:23.993Z,99624.41
2023-01-20T05:43:00.405Z,99625.22
2023-01-20T05:45:29.170Z,99629.56
2023-01-20T05:47:58.219Z,99635.56
2023-01-20T05:50:27.881Z,99632.09
2023-01-20T05:52:57.734Z,99630.38
2023-01-20T05:55:31.227Z,99636.44
2023-01-20T05:58:05.336Z,99640.78
2023-01-20T06:00:35.508Z,99655.44
2023-01-20T06:03:05.267Z,99670.06
2023-01-20T06:05:34.067Z,99674.38
2023-01-20T06:08:09.299Z,99686.41
2023-01-20T06:10:39.418Z,99682.16
2023-01-20T06:13:13.902Z,99685.59
2023-01-20T06:15:45.125Z,99680.38
2023-01-20T06:18:13.858Z,99689.88
2023-01-20T06:20:53.832Z,99697.63
2023-01-20T06:23:26.276Z,99688.13
2023-01-20T06:26:01.489Z,99688.13
2023-01-20T06:28:35.809Z,99690.72
2023-01-20T06:31:18.444Z,99693.28
2023-01-20T06:33:54.999Z,99691.56
2023-01-20T06:36:26.884Z,99692.38
2023-01-20T06:38:58.938Z,99693.34
2023-01-20T06:41:32.374Z,99695.97
2023-01-20T06:44:01.433Z,99702.84
2023-01-20T06:46:45.231Z,99704.53
2023-01-20T06:49:15.534Z,99713.06
2023-01-20T06:51:44.463Z,99718.22
2023-01-20T06:54:18.442Z,99713.06
2023-01-20T06:56:48.586Z,99719.09
2023-01-20T06:59:18.123Z,99719.09
2023-01-20T07:01:47.096Z,99721.69
2023-01-20T07:04:23.801Z,99720.88
2023-01-20T07:06:56.490Z,99723.47
2023-01-20T07:09:26.032Z,99724.28
2023-01-20T07:11:58.182Z,99721.69
2023-01-20T07:14:26.753Z,99729.44
2023-01-20T07:16:55.588Z,99732.00
2023-01-20T07:19:26.486Z,99727.66
2023-01-20T07:21:56.161Z,99727.66
2023-01-20T07:24:24.711Z,99734.50
2023-01-20T07:26:54.060Z,99737.97
2023-01-20T07:29:24.093Z,99739.66
2023-01-20T07:31:53.328Z,99739.66
2023-01-20T07:34:21.917Z,99735.38
2023-01-20T07:36:53.114Z,99726.75
2023-01-20T07:39:21.667Z,99732.72
2023-01-20T07:41:50.085Z,99730.13
2023-01-20T07:44:18.973Z,99731.88
2023-01-20T07:46:48.864Z,99728.41
2023-01-20T07:49:17.206Z,99724.94
2023-01-20T07:51:45.590Z,99730.09
2023-01-20T07:54:14.074Z,99724.03
2023-01-20T07:56:42.464Z,99730.06
2023-01-20T07:59:12.459Z,99730.91
2023-01-20T08:01:41.013Z,99731.72
2023-01-20T08:04:10.962Z,99729.97
2023-01-20T08:06:39.394Z,99738.53
2023-01-20T08:09:12.182Z,99738.50
2023-01-20T08:11:40.761Z,99734.19
2023-01-20T08:14:09.174Z,99746.22
2023-01-20T08:16:38.152Z,99746.13
2023-01-20T08:19:06.603Z,99746.09
2023-01-20T08:21:36.452Z,99742.59
2023-01-20T08:24:06.764Z,99739.09
2023-01-20T08:26:35.814Z,99743.34
2023-01-20T08:29:05.867Z,99739.88
2023-01-20T08:31:34.573Z,99733.00
2023-01-20T08:34:03.601Z,99732.09
2023-01-20T08:36:34.743Z,99729.44
2023-01-20T08:39:06.757Z,99719.97
2023-01-20T08:41:37.104Z,99727.63
2023-01-20T08:44:07.698Z,99730.13
2023-01-20T08:46:40.476Z,99736.16
2023-01-20T08:49:11.101Z,99742.19
2023-01-20T08:51:40.242Z,99737.06
2023-01-20T08:54:10.581Z,99742.22
2023-01-20T08:56:38.920Z,99749.97
2023-01-20T08:59:08.061Z,99755.13
2023-01-20T09:01:38.176Z,99762.84
2023-01-20T09:04:07.848Z,99771.44
2023-01-20T09:06:41.427Z,99772.28
2023-01-20T09:09:11.557Z,99781.66
2023-01-20T09:11:50.944Z,99788.50
2023-01-20T09:14:20.006Z,99792.78
2023-01-20T09:16:48.766Z,99793.56
2023-01-20T09:19:17.731Z,99789.22
2023-01-20T09:21:46.591Z,99787.44
2023-01-20T09:24:16.540Z,99783.13
2023-01-20T09:26:45.590Z,99791.72
2023-01-20T09:29:16.231Z,99797.78
2023-01-20T09:31:47.046Z,99797.72
2023-01-20T09:34:19.911Z,99797.63
2023-01-20T09:36:51.817Z,99801.88
2023-01-20T09:39:39.307Z,99799.25
2023-01-20T09:42:41.067Z,99798.34
2023-01-20T09:45:25.446Z,99807.75
2023-01-20T09:48:03.057Z,99800.00
2023-01-20T09:50:59.519Z,99811.16
2023-01-20T09:53:42.590Z,99800.00
2023-01-20T09:56:16.706Z,99800.84
2023-01-20T09:58:51.533Z,99812.88
2023-01-20T10:01:31.039Z,99809.38
2023-01-20T10:04:07.789Z,99810.19
2023-01-20T10:06:41.998Z,99808.53
2023-01-20T10:09:21.498Z,99799.03
2023-01-20T10:11:56.891Z,99801.63
2023-01-20T10:14:31.003Z,99798.25
2023-01-20T10:17:05.886Z,99797.44
2023-01-20T10:19:38.755Z,99791.41
2023-01-20T10:22:14.153Z,99795.78
2023-01-20T10:24:49.505Z,99794.94
2023-01-20T10:27:23.777Z,99797.56
2023-01-20T10:29:58.593Z,99783.75
2023-01-20T10:32:37.003Z,99795.78
2023-01-20T10:35:15.925Z,99789.88
2023-01-20T10:37:44.890Z,99790.81
2023-01-20T10:40:25.620Z,99796.75
2023-01-20T10:42:59.767Z,99795.91
2023-01-20T10:45:37.620Z,99796.88
2023-01-20T10:48:18.616Z,99795.16
2023-01-20T10:50:56.940Z,99789.06
2023-01-20T10:53:52.252Z,99797.75
2023-01-20T10:56:35.633Z,99802.06
2023-01-20T10:59:11.277Z,99809.88
2023-01-20T11:01:40.028Z,99818.44
2023-01-20T11:04:20.194Z,99818.47
2023-01-20T11:06:53.868Z,99830.50
2023-01-20T11:09:28.037Z,99829.75
2023-01-20T11:11:58.896Z,99828.03
2023-01-20T11:14:28.897Z,99818.50
2023-01-20T11:17:04.632Z,99825.44
2023-01-20T11:19:48.965Z,99828.91
2023-01-20T11:22:21.406Z,99827.19
2023-01-20T11:24:50.114Z,99839.16
2023-01-20T11:27:22.433Z,99842.63
2023-01-20T11:29:58.153Z,99840.88
2023-01-20T11:32:32.673Z,99834.91
2023-01-20T11:35:02.088Z,99840.09
2023-01-20T11:37:38.134Z,99841.03
2023-01-20T11:40:21.130Z,99833.25
2023-01-20T11:42:51.243Z,99832.31
2023-01-20T11:45:32.794Z,99834.03
2023-01-20T11:48:04.964Z,99840.13
2023-01-20T11:50:36.194Z,99841.00
2023-01-20T11:53:32.022Z,99859.13
2023-01-20T11:56:03.309Z,99873.81
2023-01-20T11:58:34.234Z,99874.72
2023-01-20T12:01:06.899Z,99880.81
2023-01-20T12:04:04.376Z,99894.63
2023-01-20T12:06:36.516Z,99890.41
2023-01-20T12:09:06.369Z,99886.09
2023-01-20T12:11:42.005Z,99888.69
2023-01-20T12:14:23.198Z,99888.69
2023-01-20T12:17:20.419Z,99880.09
2023-01-20T12:20:07.630Z,99879.25
2023-01-20T12:22:45.597Z,99892.19
2023-01-20T12:25:21.004Z,99880.97
2023-01-20T12:27:53.833Z,99865.47
2023-01-20T12:30:41.715Z,99858.56
2023-01-20T12:33:21.599Z,99855.13
2023-01-20T12:36:11.660Z,99850.94
2023-01-20T12:38:53.692Z,99858.72
2023-01-20T12:41:41.898Z,99857.03
2023-01-20T12:44:20.681Z,99851.81
2023-01-20T12:46:52.675Z,99845.78
2023-01-20T12:49:36.145Z,99850.97
2023-01-20T12:52:21.170Z,99846.59
2023-01-20T12:55:13.957Z,99853.44
2023-01-20T12:58:00.056Z,99844.78
2023-01-20T13:00:41.647Z,99847.44
2023-01-20T13:03:41.432Z,99840.50
2023-01-20T13:06:29.603Z,99837.00
2023-01-20T13:09:08.415Z,99837.13
2023-01-20T13:11:50.932Z,99839.72
2023-01-20T13:14:26.127Z,99843.19
2023-01-20T13:17:02.409Z,99839.72
2023-01-20T13:19:34.368Z,99840.63
2023-01-20T13:22:12.010Z,99837.97
2023-01-20T13:24:45.006Z,99841.47
2023-01-20T13:27:15.292Z,99844.88
2023-01-20T13:29:55.354Z,99836.34
2023-01-20T13:32:29.676Z,99857.94
2023-01-20T13:34:59.384Z,99851.06
2023-01-20T13:37:32.180Z,99853.69
2023-01-20T13:40:01.221Z,99857.16
2023-01-20T13:42:50.355Z,99852.03
2023-01-20T13:45:27.121Z,99835.69
2023-01-20T13:48:22.400Z,99840.84
2023-01-20T13:50:52.012Z,99846.00
2023-01-20T13:53:30.018Z,99846.84
2023-01-20T13:56:26.427Z,99834.00
2023-01-20T13:58:58.211Z,99848.66
2023-01-20T14:01:27.545Z,99856.41
2023-01-20T14:04:15.998Z,99862.47
2023-01-20T14:06:47.187Z,99859.94
2023-01-20T14:09:22.088Z,99857.31
2023-01-20T14:11:51.516Z,99866.81
2023-01-20T14:14:21.610Z,99878.06
2023-01-20T14:16:50.649Z,99878.88
2023-01-20T14:19:23.507Z,99892.66
2023-01-20T14:21:54.354Z,99896.13
2023-01-20T14:24:29.950Z,99898.66
2023-01-20T14:27:09.210Z,99891.81
2023-01-20T14:29:38.791Z,99890.91
2023-01-20T14:32:21.156Z,99890.09
2023-01-20T14:34:51.379Z,99893.59
2023-01-20T14:37:27.421Z,99900.53
2023-01-20T14:40:02.495Z,99900.53
2023-01-20T14:42:31.290Z,99891.91
2023-01-20T14:44:59.688Z,99892.75
2023-01-20T14:47:28.660Z,99892.81
2023-01-20T14:49:58.436Z,99904.00
2023-01-20T14:52:29.882Z,99910.88
2023-01-20T14:54:58.753Z,99904.84
2023-01-20T14:57:31.039Z,99892.81
2023-01-20T15:00:14.979Z,99894.56
2023-01-20T15:02:45.830Z,99889.41
2023-01-20T15:05:27.843Z,99885.97
2023-01-20T15:08:23.722Z,99883.38
2023-01-20T15:11:29.140Z,99892.88
2023-01-20T15:14:10.286Z,99889.41
2023-01-20T15:16:49.698Z,99892.88
2023-01-20T15:19:35.912Z,99892.00
2023-01-20T15:22:22.911Z,99879.09
2023-01-20T15:24:51.963Z,99884.28
2023-01-20T15:27:30.584Z,99892.94
2023-01-20T15:30:14.224Z,99891.22
2023-01-20T15:32:42.982Z,99896.38
2023-01-20T15:35:14.678Z,99901.53
2023-01-20T15:37:43.880Z,99908.41
2023-01-20T15:40:20.858Z,99915.28
2023-01-20T15:42:50.299Z,99921.31
2023-01-20T15:45:20.605Z,99924.78
2023-01-20T15:47:49.872Z,99929.97
2023-01-20T15:50:21.698Z,99937.72
2023-01-20T15:52:50.356Z,99930.78
2023-01-20T15:55:20.841Z,99936.84
2023-01-20T15:57:53.026Z,99939.44
2023-01-20T16:00:25.054Z,99942.88
2023-01-20T16:02:53.512Z,99956.69
2023-01-20T16:05:22.261Z,99948.06
2023-01-20T16:07:50.610Z,99942.03
2023-01-20T16:10:20.645Z,99952.38
2023-01-20T16:12:49.457Z,99948.94
2023-01-20T16:15:19.191Z,99957.59
2023-01-20T16:17:51.036Z,99957.59
2023-01-20T16:20:23.103Z,99966.16
2023-01-20T16:22:51.801Z,99971.31
2023-01-20T16:25:20.175Z,99975.66
2023-01-20T16:27:48.612Z,99966.16
2023-01-20T16:30:18.466Z,99969.59
2023-01-20T16:32:48.703Z,99967.91
2023-01-20T16:35:18.974Z,99965.34
2023-01-20T16:37:48.569Z,99967.91
2023-01-20T16:40:19.956Z,99962.75
2023-01-20T16:42:48.798Z,99963.59
2023-01-20T16:45:24.231Z,99961.00
2023-01-20T16:47:54.558Z,99966.16
2023-01-20T16:50:23.311Z,99967.03
2023-01-20T16:52:51.740Z,99951.53
2023-01-20T16:55:20.323Z,99954.13
2023-01-20T16:57:48.690Z,99949.84
2023-01-20T17:00:19.428Z,99947.25
2023-01-20T17:02:51.451Z,99945.56
2023-01-20T17:05:25.772Z,99959.31
2023-01-20T17:07:56.968Z,99954.09
2023-01-20T17:10:27.740Z,99960.91
2023-01-20T17:12:56.824Z,99960.09
2023-01-20T17:15:26.638Z,99959.28
2023-01-20T17:17:58.309Z,99955.81
2023-01-20T17:20:28.732Z,99958.41
2023-01-20T17:22:57.254Z,99959.28
2023-01-20T17:25:26.074Z,99963.56
2023-01-20T17:27:54.369Z,99967.84
2023-01-20T17:30:25.935Z,99970.44
2023-01-20T17:32:54.807Z,99978.25
2023-01-20T17:35:23.553Z,99967.03
2023-01-20T17:37:53.371Z,99972.19
2023-01-20T17:40:22.058Z,99967.84
2023-01-20T17:42:53.807Z,99966.16
2023-01-20T17:45:22.163Z,99972.19
2023-01-20T17:47:52.096Z,99969.59
2023-01-20T17:50:20.835Z,99962.69
2023-01-20T17:52:49.636Z,99961.84
2023-01-20T17:55:19.498Z,99967.91
2023-01-20T17:57:48.083Z,99973.09
2023-01-20T18:00:18.898Z,99976.56
2023-01-20T18:02:48.061Z,99975.66
2023-01-20T18:05:16.486Z,99979.94
2023-01-20T18:07:45.008Z,99977.31
2023-01-20T18:10:13.730Z,99981.59
2023-01-20T18:12:45.222Z,99983.34
2023-01-20T18:15:13.609Z,99985.03
2023-01-20T18:17:43.580Z,99996.25
2023-01-20T18:20:15.366Z,99979.06
2023-01-20T18:22:48.973Z,99987.63
2023-01-20T18:25:17.808Z,99985.06
2023-01-20T18:27:47.856Z,99988.53
2023-01-20T18:30:17.313Z,99985.94
2023-01-20T18:32:46.417Z,99983.38
2023-01-20T18:35:14.820Z,99985.06
2023-01-20T18:37:43.328Z,99987.63
2023-01-20T18:40:13.196Z,99987.66
2023-01-20T18:42:45.158Z,99983.34
2023-01-20T18:45:15.249Z,99979.88
2023-01-20T18:47:43.716Z,99985.06
2023-01-20T18:50:12.976Z,99979.00
2023-01-20T18:52:41.643Z,99985.06
2023-01-20T18:55:11.986Z,99995.38
2023-01-20T18:57:40.886Z,99993.66
2023-01-20T19:00:10.477Z,99987.66
2023-01-20T19:02:40.613Z,99985.06
2023-01-20T19:05:09.914Z,99991.09
2023-01-20T19:07:38.541Z,99990.22
2023-01-20T19:10:07.706Z,99985.03
2023-01-20T19:12:36.174Z,99989.34
2023-01-20T19:15:05.085Z,99991.91
2023-01-20T19:17:35.371Z,99986.75
2023-01-20T19:20:07.342Z,99991.94
2023-01-20T19:22:35.783Z,99990.22
2023-01-20T19:25:05.378Z,99990.28
2023-01-20T19:27:33.718Z,99981.66
2023-01-20T19:30:02.608Z,99979.06
2023-01-20T19:32:31.069Z,99974.78
2023-01-20T19:34:59.591Z,99979.06
2023-01-20T19:37:29.631Z,99973.03
2023-01-20T19:39:57.909Z,99974.78
2023-01-20T19:42:26.388Z,99979.94
2023-01-20T19:44:55.176Z,99982.53
2023-01-20T19:47:23.619Z,99988.53
2023-01-20T19:49:52.365Z,99993.72
2023-01-20T19:52:20.692Z,99982.47
2023-01-20T19:54:51.780Z,99979.88
2023-01-20T19:57:20.485Z,99970.44
2023-01-20T19:59:48.968Z,99966.97
2023-01-20T20:02:17.868Z,99960.97
2023-01-20T20:04:46.558Z,99955.81
2023-01-20T20:07:15.079Z,99949.78
2023-01-20T20:09:43.751Z,99940.31
2023-01-20T20:12:13.764Z,99926.59
2023-01-20T20:14:43.710Z,99930.88
2023-01-20T20:17:15.279Z,99943.78
2023-01-20T20:19:44.796Z,99948.97
2023-01-20T20:22:13.938Z,99952.44
2023-01-20T20:24:42.791Z,99956.72
2023-01-20T20:27:12.647Z,99952.41
2023-01-20T20:29:44.744Z,99950.66
2023-01-20T20:32:15.202Z,99955.84
2023-01-20T20:34:44.339Z,99952.41
2023-01-20T20:37:14.421Z,99955.00
2023-01-20T20:39:43.967Z,99952.44
2023-01-20T20:42:14.286Z,99945.56
2023-01-20T20:44:44.958Z,99955.88
2023-01-20T20:47:13.529Z,99944.69
2023-01-20T20:49:42.459Z,99942.13
2023-01-20T20:52:10.969Z,99943.84
2023-01-20T20:54:39.530Z,99936.94
2023-01-20T20:57:08.957Z,99944.72
2023-01-20T20:59:47.260Z,99942.13
2023-01-20T21:02:27.634Z,99931.84
2023-01-20T21:04:57.230Z,99928.38
2023-01-20T21:07:25.571Z,99933.53
2023-01-20T21:09:54.925Z,99935.25
2023-01-20T21:12:23.283Z,99930.09
2023-01-20T21:14:52.761Z,99930.94
2023-01-20T21:17:21.315Z,99935.22
2023-01-20T21:19:52.451Z,99930.88
2023-01-20T21:22:21.252Z,99923.13
2023-01-20T21:24:49.920Z,99933.47
2023-01-20T21:27:18.703Z,99929.19
2023-01-20T21:29:47.193Z,99924.88
2023-01-20T21:32:15.956Z,99930.03
2023-01-20T21:34:44.362Z,99932.63
2023-01-20T21:37:14.281Z,99930.03
2023-01-20T21:39:42.773Z,99934.34
2023-01-20T21:42:11.333Z,99920.56
2023-01-20T21:44:42.556Z,99918.03
2023-01-20T21:47:11.823Z,99910.28
2023-01-20T21:49:57.808Z,99901.66
2023-01-20T21:52:42.951Z,99899.06
2023-01-20T21:55:13.773Z,99895.63
2023-01-20T21:57:42.734Z,99897.31
2023-01-20T22:00:15.576Z,99896.47
2023-01-20T22:02:45.936Z,99859.59
2023-01-20T22:05:15.529Z,99880.09
2023-01-20T22:07:47.978Z,99894.69
2023-01-20T22:10:16.741Z,99880.06
2023-01-20T22:12:45.412Z,99874.91
2023-01-20T22:15:13.931Z,99866.28
2023-01-20T22:17:43.065Z,99875.78
2023-01-20T22:20:12.738Z,99861.19
2023-01-20T22:22:41.125Z,99861.19
2023-01-20T22:25:11.381Z,99859.44
2023-01-20T22:27:40.031Z,99860.31
2023-01-20T22:30:09.534Z,99855.16
2023-01-20T22:32:37.965Z,99870.66
2023-01-20T22:35:07.140Z,99860.31
2023-01-20T22:37:35.753Z,99865.50
2023-01-20T22:40:05.295Z,99849.09
2023-01-20T22:42:35.332Z,99843.13
2023-01-20T22:45:03.835Z,99838.84
2023-01-20T22:47:32.435Z,99844.00
2023-01-20T22:50:00.853Z,99831.97
2023-01-20T22:52:30.574Z,99834.53
2023-01-20T22:54:58.992Z,99834.53
2023-01-20T22:57:27.452Z,99836.25
2023-01-20T22:59:57.322Z,99834.53
2023-01-20T23:02:25.984Z,99835.38
2023-01-20T23:04:54.552Z,99837.06
2023-01-20T23:07:22.967Z,99840.53
2023-01-20T23:09:51.319Z,99848.28
2023-01-20T23:12:20.023Z,99850.84
2023-01-20T23:15:00.274Z,99853.44
2023-01-20T23:17:33.172Z,99859.44
2023-01-20T23:20:01.814Z,99852.56
2023-01-20T23:22:30.893Z,99846.53
2023-01-20T23:25:01.533Z,99840.50
2023-01-20T23:27:31.827Z,99836.19
2023-01-20T23:30:01.551Z,99835.28
2023-01-20T23:32:31.333Z,99830.13
2023-01-20T23:35:02.014Z,99819.78
2023-01-20T23:37:30.511Z,99828.41
2023-01-20T23:40:00.568Z,99823.25
2023-01-20T23:42:29.693Z,99806.88
2023-01-20T23:44:58.339Z,99803.47
2023-01-20T23:47:26.758Z,99801.75
2023-01-20T23:49:56.572Z,99787.16
2023-01-20T23:52:26.096Z,99798.41
2023-01-20T23:54:55.852Z,99798.41
2023-01-20T23:57:26.342Z,99795.81
2023-01-20T23:59:56.588Z,99783.78
